createdAt,value
2022-08-23T00:02:30.696Z,18.17
2022-08-23T00:05:08.817Z,18.16
2022-08-23T00:07:45.647Z,18.13
2022-08-23T00:10:18.962Z,18.11
2022-08-23T00:12:51.517Z,18.10
2022-08-23T00:15:24.183Z,18.08
2022-08-23T00:17:56.597Z,18.08
2022-08-23T00:20:28.785Z,18.09
2022-08-23T00:23:00.809Z,18.11
2022-08-23T00:25:33.182Z,18.12
2022-08-23T00:28:05.618Z,18.14
2022-08-23T00:30:47.075Z,18.15
2022-08-23T00:33:19.098Z,18.16
2022-08-23T00:35:51.461Z,18.16
2022-08-23T00:38:33.086Z,18.18
2022-08-23T00:41:07.617Z,18.18
2022-08-23T00:44:00.220Z,18.19
2022-08-23T00:47:01.004Z,18.20
2022-08-23T00:49:36.980Z,18.20
2022-08-23T00:52:14.797Z,18.21
2022-08-23T00:54:48.385Z,18.20
2022-08-23T00:57:21.339Z,18.18
2022-08-23T00:59:53.738Z,18.18
2022-08-23T01:02:26.300Z,18.17
2022-08-23T01:05:02.500Z,18.16
2022-08-23T01:07:47.328Z,18.13
2022-08-23T01:10:27.825Z,18.14
2022-08-23T01:13:05.660Z,18.13
2022-08-23T01:15:42.517Z,18.10
2022-08-23T01:18:17.980Z,18.10
2022-08-23T01:20:56.603Z,18.10
2022-08-23T01:23:37.203Z,18.11
2022-08-23T01:26:10.965Z,18.12
2022-08-23T01:28:45.903Z,18.12
2022-08-23T01:31:19.833Z,18.11
2022-08-23T01:33:59.274Z,18.11
2022-08-23T01:36:32.861Z,18.12
2022-08-23T01:39:08.094Z,18.13
2022-08-23T01:41:41.204Z,18.13
2022-08-23T01:44:14.525Z,18.12
2022-08-23T01:46:48.368Z,18.11
2022-08-23T01:49:25.480Z,18.08
2022-08-23T01:51:57.827Z,18.05
2022-08-23T01:54:30.784Z,18.03
2022-08-23T01:57:03.028Z,18.01
2022-08-23T01:59:35.175Z,18.00
2022-08-23T02:02:07.480Z,17.99
2022-08-23T02:04:39.547Z,18.00
2022-08-23T02:07:12.974Z,17.99
2022-08-23T02:09:46.078Z,17.98
2022-08-23T02:12:18.276Z,17.99
2022-08-23T02:14:51.068Z,17.99
2022-08-23T02:17:28.292Z,17.98
2022-08-23T02:20:02.334Z,17.97
2022-08-23T02:22:34.664Z,17.98
2022-08-23T02:25:07.888Z,18.00
2022-08-23T02:27:44.153Z,18.01
2022-08-23T02:30:17.763Z,18.03
2022-08-23T02:32:50.028Z,18.05
2022-08-23T02:35:24.188Z,18.05
2022-08-23T02:37:56.292Z,18.08
2022-08-23T02:40:28.861Z,18.10
2022-08-23T02:43:01.227Z,18.13
2022-08-23T02:45:34.053Z,18.16
2022-08-23T02:48:08.185Z,18.19
2022-08-23T02:50:47.848Z,18.22
2022-08-23T02:53:20.100Z,18.24
2022-08-23T02:55:52.817Z,18.24
2022-08-23T02:58:25.400Z,18.25
2022-08-23T03:00:58.189Z,18.26
2022-08-23T03:03:30.567Z,18.27
2022-08-23T03:06:25.373Z,18.27
2022-08-23T03:08:58.739Z,18.25
2022-08-23T03:11:31.251Z,18.23
2022-08-23T03:14:03.399Z,18.20
2022-08-23T03:19:43.279Z,18.26
2022-08-23T03:22:11.921Z,18.23
2022-08-23T03:24:40.824Z,18.21
2022-08-23T03:27:11.338Z,18.18
2022-08-23T03:29:41.197Z,18.15
2022-08-23T03:32:10.154Z,18.12
2022-08-23T03:34:39.443Z,18.12
2022-08-23T03:37:09.595Z,18.13
2022-08-23T03:39:38.999Z,18.16
2022-08-23T03:42:08.349Z,18.18
2022-08-23T03:44:37.471Z,18.22
2022-08-23T03:47:07.166Z,18.23
2022-08-23T03:49:37.170Z,18.22
2022-08-23T03:52:07.912Z,18.21
2022-08-23T03:54:38.262Z,18.17
2022-08-23T03:57:09.605Z,18.16
2022-08-23T03:59:40.666Z,18.15
2022-08-23T04:02:11.602Z,18.14
2022-08-23T04:04:40.508Z,18.13
2022-08-23T04:07:24.372Z,18.14
2022-08-23T04:09:57.457Z,18.13
2022-08-23T04:12:28.020Z,18.14
2022-08-23T04:14:57.098Z,18.15
2022-08-23T04:17:25.893Z,18.17
2022-08-23T04:19:54.728Z,18.21
2022-08-23T04:22:24.182Z,18.24
2022-08-23T04:24:53.055Z,18.27
2022-08-23T04:27:23.054Z,18.30
2022-08-23T04:29:51.771Z,18.32
2022-08-23T04:32:28.282Z,18.34
2022-08-23T04:34:58.781Z,18.36
2022-08-23T04:37:27.894Z,18.39
2022-08-23T04:40:15.220Z,18.41
2022-08-23T04:42:45.372Z,18.43
2022-08-23T04:45:14.078Z,18.44
2022-08-23T04:47:45.855Z,18.48
2022-08-23T04:50:14.491Z,18.49
2022-08-23T04:53:01.552Z,18.52
2022-08-23T04:55:30.738Z,18.54
2022-08-23T04:58:08.055Z,18.57
2022-08-23T05:00:46.142Z,18.60
2022-08-23T05:03:16.957Z,18.62
2022-08-23T05:05:46.875Z,18.63
2022-08-23T05:08:15.799Z,18.65
2022-08-23T05:10:44.811Z,18.67
2022-08-23T05:13:14.211Z,18.70
2022-08-23T05:15:43.963Z,18.74
2022-08-23T05:18:12.906Z,18.79
2022-08-23T05:20:43.527Z,18.83
2022-08-23T05:23:12.224Z,18.90
2022-08-23T05:25:53.344Z,18.95
2022-08-23T05:28:33.959Z,19.01
2022-08-23T05:31:11.429Z,19.05
2022-08-23T05:33:50.263Z,19.10
2022-08-23T05:36:24.127Z,19.14
2022-08-23T05:38:55.106Z,19.15
2022-08-23T05:41:33.388Z,19.18
2022-08-23T05:44:09.803Z,19.23
2022-08-23T05:46:39.159Z,19.28
2022-08-23T05:49:35.897Z,19.37
2022-08-23T05:52:05.361Z,19.46
2022-08-23T05:54:35.660Z,19.55
2022-08-23T05:57:17.852Z,19.62
2022-08-23T05:59:47.056Z,19.67
2022-08-23T06:02:15.657Z,19.72
2022-08-23T06:04:44.357Z,19.77
2022-08-23T06:07:13.631Z,19.81
2022-08-23T06:09:42.239Z,19.86
2022-08-23T06:12:11.643Z,19.89
2022-08-23T06:14:41.390Z,19.91
2022-08-23T06:17:10.009Z,19.92
2022-08-23T06:19:38.447Z,19.95
2022-08-23T06:22:33.457Z,20.00
2022-08-23T06:25:03.000Z,20.06
2022-08-23T06:27:52.290Z,20.10
2022-08-23T06:30:21.615Z,20.12
2022-08-23T06:32:56.584Z,20.11
2022-08-23T06:35:38.223Z,20.10
2022-08-23T06:38:28.402Z,20.10
2022-08-23T06:41:12.592Z,20.09
2022-08-23T06:44:01.446Z,20.12
2022-08-23T06:46:48.985Z,20.18
2022-08-23T06:49:17.850Z,20.21
2022-08-23T06:51:52.358Z,20.26
2022-08-23T06:54:33.228Z,20.31
2022-08-23T06:57:20.520Z,20.34
2022-08-23T07:00:12.191Z,20.31
2022-08-23T07:03:01.769Z,20.28
2022-08-23T07:05:49.123Z,20.26
2022-08-23T07:08:22.828Z,20.24
2022-08-23T07:10:51.777Z,20.24
2022-08-23T07:13:20.175Z,20.23
2022-08-23T07:15:50.093Z,20.17
2022-08-23T07:18:21.086Z,20.14
2022-08-23T07:20:50.353Z,20.11
2022-08-23T07:23:18.862Z,20.07
2022-08-23T07:25:47.902Z,20.04
2022-08-23T07:28:19.379Z,20.01
2022-08-23T07:30:48.153Z,20.00
2022-08-23T07:33:17.200Z,20.01
2022-08-23T07:36:08.388Z,20.00
2022-08-23T07:38:37.713Z,19.98
2022-08-23T07:41:06.616Z,19.93
2022-08-23T07:43:38.728Z,19.87
2022-08-23T07:46:09.777Z,19.85
2022-08-23T07:48:53.952Z,19.83
2022-08-23T07:51:32.301Z,19.81
2022-08-23T07:54:04.144Z,19.79
2022-08-23T07:56:34.295Z,19.78
2022-08-23T07:59:08.052Z,19.75
2022-08-23T08:01:56.032Z,19.77
2022-08-23T08:04:24.816Z,19.77
2022-08-23T08:07:17.201Z,19.78
2022-08-23T08:09:45.607Z,19.79
2022-08-23T08:12:15.986Z,19.78
2022-08-23T08:14:44.643Z,19.78
2022-08-23T08:17:14.389Z,19.80
2022-08-23T08:20:10.815Z,19.81
2022-08-23T08:22:53.761Z,19.78
2022-08-23T08:25:34.029Z,19.77
2022-08-23T08:28:04.402Z,19.77
2022-08-23T08:30:33.158Z,19.76
2022-08-23T08:33:02.257Z,19.75
2022-08-23T08:35:31.245Z,19.73
2022-08-23T08:38:01.827Z,19.70
2022-08-23T08:40:39.629Z,19.64
2022-08-23T08:43:27.155Z,19.62
2022-08-23T08:46:06.767Z,19.59
2022-08-23T08:48:42.255Z,19.57
2022-08-23T08:51:28.070Z,19.54
2022-08-23T08:53:59.280Z,19.55
2022-08-23T08:56:38.822Z,19.58
2022-08-23T08:59:47.837Z,19.62
2022-08-23T09:02:31.836Z,19.63
2022-08-23T09:05:06.653Z,19.65
2022-08-23T09:07:47.213Z,19.66
2022-08-23T09:10:37.576Z,19.69
2022-08-23T09:13:44.100Z,19.76
2022-08-23T09:16:28.825Z,19.83
2022-08-23T09:19:01.391Z,19.87
2022-08-23T09:21:44.149Z,19.92
2022-08-23T09:24:14.167Z,19.98
2022-08-23T09:27:08.324Z,20.08
2022-08-23T09:29:51.942Z,20.17
2022-08-23T09:32:32.364Z,20.26
2022-08-23T09:35:13.003Z,20.33
2022-08-23T09:37:59.390Z,20.38
2022-08-23T09:40:38.981Z,20.44
2022-08-23T09:43:16.537Z,20.49
2022-08-23T09:45:58.441Z,20.54
2022-08-23T09:48:39.367Z,20.59
2022-08-23T09:51:25.153Z,20.61
2022-08-23T09:54:05.779Z,20.60
2022-08-23T09:56:40.099Z,20.58
2022-08-23T09:59:27.803Z,20.57
2022-08-23T10:02:05.387Z,20.55
2022-08-23T10:04:45.308Z,20.56
2022-08-23T10:07:37.720Z,20.60
2022-08-23T10:10:23.854Z,20.64
2022-08-23T10:12:56.011Z,20.63
2022-08-23T10:15:39.275Z,20.64
2022-08-23T10:18:17.055Z,20.64
2022-08-23T10:20:54.496Z,20.65
2022-08-23T10:23:36.317Z,20.69
2022-08-23T10:26:10.764Z,20.79
2022-08-23T10:29:05.265Z,20.88
2022-08-23T10:31:42.810Z,20.98
2022-08-23T10:34:24.453Z,21.03
2022-08-23T10:37:09.472Z,21.06
2022-08-23T10:39:48.612Z,21.13
2022-08-23T10:42:31.138Z,21.17
2022-08-23T10:45:05.135Z,21.17
2022-08-23T10:47:37.362Z,21.13
2022-08-23T10:50:12.867Z,21.11
2022-08-23T10:52:51.986Z,21.08
2022-08-23T10:55:34.719Z,21.05
2022-08-23T10:58:06.840Z,21.02
2022-08-23T11:00:37.746Z,20.97
2022-08-23T11:03:24.415Z,20.94
2022-08-23T11:06:25.155Z,20.91
2022-08-23T11:09:04.242Z,20.87
2022-08-23T11:11:46.399Z,20.85
2022-08-23T11:14:34.276Z,20.86
2022-08-23T11:17:05.240Z,20.89
2022-08-23T11:19:53.643Z,20.93
2022-08-23T11:22:24.884Z,20.98
2022-08-23T11:24:58.630Z,21.02
2022-08-23T11:27:37.081Z,21.07
2022-08-23T11:30:49.220Z,21.16
2022-08-23T11:33:24.607Z,21.29
2022-08-23T11:36:15.947Z,21.41
2022-08-23T11:39:10.972Z,21.54
2022-08-23T11:42:00.871Z,21.62
2022-08-23T11:44:39.480Z,21.68
2022-08-23T11:47:11.491Z,21.67
2022-08-23T11:49:56.799Z,21.62
2022-08-23T11:52:47.354Z,21.55
2022-08-23T11:55:28.166Z,21.53
2022-08-23T11:58:20.431Z,21.45
2022-08-23T12:01:05.578Z,21.39
2022-08-23T12:03:51.941Z,21.40
2022-08-23T12:06:51.033Z,21.44
2022-08-23T12:09:55.753Z,21.50
2022-08-23T12:12:39.368Z,21.57
2022-08-23T12:15:12.602Z,21.56
2022-08-23T12:18:11.913Z,21.57
2022-08-23T12:20:42.716Z,21.58
2022-08-23T12:23:22.270Z,21.58
2022-08-23T12:26:06.408Z,21.57
2022-08-23T12:28:40.677Z,21.54
2022-08-23T12:31:19.879Z,21.50
2022-08-23T12:34:00.555Z,21.48
2022-08-23T12:36:38.498Z,21.49
2022-08-23T12:39:19.447Z,21.52
2022-08-23T12:41:55.175Z,21.55
2022-08-23T12:44:27.519Z,21.57
2022-08-23T12:46:57.525Z,21.58
2022-08-23T12:49:30.220Z,21.62
2022-08-23T12:52:01.989Z,21.67
2022-08-23T12:54:37.301Z,21.69
2022-08-23T12:57:11.293Z,21.72
2022-08-23T12:59:50.334Z,21.76
2022-08-23T13:02:24.050Z,21.82
2022-08-23T13:04:54.653Z,21.83
2022-08-23T13:07:26.236Z,21.84
2022-08-23T13:09:56.068Z,21.87
2022-08-23T13:12:25.833Z,21.87
2022-08-23T13:14:56.728Z,21.85
2022-08-23T13:17:36.120Z,21.81
2022-08-23T13:20:22.118Z,21.77
2022-08-23T13:23:03.102Z,21.74
2022-08-23T13:25:35.890Z,21.73
2022-08-23T13:28:07.565Z,21.74
2022-08-23T13:30:36.623Z,21.75
2022-08-23T13:33:22.451Z,21.73
2022-08-23T13:36:05.199Z,21.69
2022-08-23T13:38:44.004Z,21.64
2022-08-23T13:41:30.517Z,21.59
2022-08-23T13:44:04.483Z,21.54
2022-08-23T13:46:34.329Z,21.48
2022-08-23T13:49:09.123Z,21.43
2022-08-23T13:51:39.916Z,21.40
2022-08-23T13:54:14.498Z,21.36
2022-08-23T13:56:53.396Z,21.34
2022-08-23T13:59:31.586Z,21.32
2022-08-23T14:02:03.469Z,21.30
2022-08-23T14:04:32.209Z,21.27
2022-08-23T14:07:01.148Z,21.28
2022-08-23T14:09:30.101Z,21.30
2022-08-23T14:12:03.914Z,21.29
2022-08-23T14:14:35.612Z,21.27
2022-08-23T14:17:12.944Z,21.25
2022-08-23T14:22:35.639Z,21.20
2022-08-23T14:25:06.839Z,21.19
2022-08-23T14:27:37.954Z,21.20
2022-08-23T14:30:11.300Z,21.22
2022-08-23T14:32:40.488Z,21.23
2022-08-23T14:35:11.085Z,21.22
2022-08-23T14:40:28.868Z,21.19
2022-08-23T14:42:58.123Z,21.16
2022-08-23T14:45:27.117Z,21.15
2022-08-23T14:47:55.781Z,21.15
2022-08-23T14:50:24.469Z,21.14
2022-08-23T14:52:57.959Z,21.13
2022-08-23T14:55:26.687Z,21.11
2022-08-23T14:57:55.550Z,21.08
2022-08-23T15:00:24.338Z,21.05
2022-08-23T15:02:53.419Z,21.02
2022-08-23T15:05:22.753Z,20.99
2022-08-23T15:07:51.933Z,20.96
2022-08-23T15:13:21.662Z,20.87
2022-08-23T15:15:55.363Z,20.81
2022-08-23T15:18:24.067Z,20.76
2022-08-23T15:20:53.004Z,20.72
2022-08-23T15:23:21.715Z,20.65
2022-08-23T15:25:50.894Z,20.60
2022-08-23T15:28:22.611Z,20.55
2022-08-23T15:30:52.095Z,20.49
2022-08-23T15:33:26.322Z,20.45
2022-08-23T15:36:01.333Z,20.42
2022-08-23T15:38:31.037Z,20.38
2022-08-23T15:41:00.169Z,20.35
2022-08-23T15:43:34.211Z,20.34
2022-08-23T15:46:07.513Z,20.33
2022-08-23T15:48:41.576Z,20.33
2022-08-23T15:51:10.793Z,20.35
2022-08-23T15:53:39.859Z,20.36
2022-08-23T15:56:11.839Z,20.39
2022-08-23T15:58:41.417Z,20.41
2022-08-23T16:01:11.449Z,20.43
2022-08-23T16:03:42.700Z,20.44
2022-08-23T16:06:13.763Z,20.45
2022-08-23T16:08:44.947Z,20.44
2022-08-23T16:11:13.961Z,20.41
2022-08-23T16:13:44.628Z,20.38
2022-08-23T16:16:20.970Z,20.33
2022-08-23T16:18:51.725Z,20.25
2022-08-23T16:21:22.468Z,20.19
2022-08-23T16:23:51.127Z,20.12
2022-08-23T16:26:22.692Z,20.06
2022-08-23T16:29:01.271Z,19.98
2022-08-23T16:31:39.047Z,19.91
2022-08-23T16:34:10.699Z,19.83
2022-08-23T16:36:41.842Z,19.77
2022-08-23T16:39:12.968Z,19.71
2022-08-23T16:41:42.038Z,19.65
2022-08-23T16:44:10.781Z,19.62
2022-08-23T16:46:42.136Z,19.57
2022-08-23T16:49:11.252Z,19.54
2022-08-23T16:51:40.053Z,19.49
2022-08-23T16:54:09.491Z,19.46
2022-08-23T16:56:39.817Z,19.44
2022-08-23T16:59:10.854Z,19.42
2022-08-23T17:01:48.060Z,19.40
2022-08-23T17:04:17.854Z,19.39
2022-08-23T17:06:46.598Z,19.37
2022-08-23T17:09:16.772Z,19.39
2022-08-23T17:11:45.881Z,19.38
2022-08-23T17:14:14.981Z,19.39
2022-08-23T17:16:44.710Z,19.39
2022-08-23T17:19:14.100Z,19.38
2022-08-23T17:21:43.183Z,19.38
2022-08-23T17:24:12.220Z,19.38
2022-08-23T17:26:40.766Z,19.38
2022-08-23T17:29:09.723Z,19.40
2022-08-23T17:31:38.659Z,19.41
2022-08-23T17:34:07.485Z,19.41
2022-08-23T17:36:39.698Z,19.42
2022-08-23T17:39:12.144Z,19.44
2022-08-23T17:41:45.130Z,19.45
2022-08-23T17:44:14.912Z,19.46
2022-08-23T17:46:44.854Z,19.47
2022-08-23T17:49:18.273Z,19.48
2022-08-23T17:51:47.074Z,19.49
2022-08-23T17:54:16.552Z,19.50
2022-08-23T17:56:50.478Z,19.50
2022-08-23T17:59:22.419Z,19.49
2022-08-23T18:01:50.580Z,19.48
2022-08-23T18:04:19.583Z,19.45
2022-08-23T18:06:48.317Z,19.43
2022-08-23T18:09:19.745Z,19.40
2022-08-23T18:11:47.966Z,19.39
2022-08-23T18:14:16.794Z,19.37
2022-08-23T18:16:45.580Z,19.37
2022-08-23T18:19:15.085Z,19.35
2022-08-23T18:22:25.934Z,19.36
2022-08-23T18:24:56.311Z,19.35
2022-08-23T18:27:43.865Z,19.36
2022-08-23T18:31:07.361Z,19.35
2022-08-23T18:34:30.197Z,19.35
2022-08-23T18:37:00.343Z,19.33
2022-08-23T18:39:32.213Z,19.32
2022-08-23T18:42:05.223Z,19.32
2022-08-23T18:44:33.897Z,19.34
2022-08-23T18:47:03.634Z,19.34
2022-08-23T18:49:34.978Z,19.34
2022-08-23T18:52:04.850Z,19.36
2022-08-23T18:54:34.279Z,19.37
2022-08-23T18:57:03.938Z,19.37
2022-08-23T18:59:32.690Z,19.39
2022-08-23T19:02:01.748Z,19.40
2022-08-23T19:04:30.825Z,19.42
2022-08-23T19:06:59.458Z,19.43
2022-08-23T19:09:30.434Z,19.44
2022-08-23T19:12:00.247Z,19.44
2022-08-23T19:14:29.580Z,19.45
2022-08-23T19:17:01.621Z,19.44
2022-08-23T19:19:30.766Z,19.44
2022-08-23T19:22:03.411Z,19.44
2022-08-23T19:24:33.000Z,19.42
2022-08-23T19:27:03.940Z,19.41
2022-08-23T19:29:34.815Z,19.40
2022-08-23T19:32:05.600Z,19.39
2022-08-23T19:34:44.745Z,19.36
2022-08-23T19:37:20.748Z,19.34
2022-08-23T19:39:55.354Z,19.32
2022-08-23T19:42:27.580Z,19.33
2022-08-23T19:44:56.866Z,19.33
2022-08-23T19:47:29.862Z,19.34
2022-08-23T19:50:13.190Z,19.35
2022-08-23T19:52:42.378Z,19.34
2022-08-23T19:55:15.642Z,19.34
2022-08-23T19:57:47.529Z,19.32
2022-08-23T20:00:19.701Z,19.30
2022-08-23T20:02:50.897Z,19.31
2022-08-23T20:05:21.758Z,19.32
2022-08-23T20:07:51.060Z,19.34
2022-08-23T20:10:21.214Z,19.34
2022-08-23T20:12:49.736Z,19.34
2022-08-23T20:15:18.733Z,19.33
2022-08-23T20:17:47.464Z,19.32
2022-08-23T20:20:17.287Z,19.30
2022-08-23T20:23:05.007Z,19.29
2022-08-23T20:25:33.760Z,19.30
2022-08-23T20:28:06.960Z,19.31
2022-08-23T20:30:36.929Z,19.31
2022-08-23T20:33:05.577Z,19.32
2022-08-23T20:35:34.100Z,19.32
2022-08-23T20:38:05.984Z,19.32
2022-08-23T20:40:34.013Z,19.34
2022-08-23T20:43:02.762Z,19.30
2022-08-23T20:45:32.999Z,19.30
2022-08-23T20:48:01.638Z,19.29
2022-08-23T20:50:30.689Z,19.31
2022-08-23T20:52:59.374Z,19.31
2022-08-23T20:55:28.153Z,19.32
2022-08-23T20:57:56.836Z,19.33
2022-08-23T21:00:27.907Z,19.32
2022-08-23T21:02:56.569Z,19.31
2022-08-23T21:05:25.811Z,19.29
2022-08-23T21:07:56.405Z,19.29
2022-08-23T21:10:26.083Z,19.26
2022-08-23T21:12:54.836Z,19.24
2022-08-23T21:15:23.577Z,19.24
2022-08-23T21:17:52.191Z,19.22
2022-08-23T21:20:21.254Z,19.20
2022-08-23T21:22:50.104Z,19.19
2022-08-23T21:25:20.760Z,19.19
2022-08-23T21:27:49.462Z,19.18
2022-08-23T21:30:19.273Z,19.17
2022-08-23T21:32:48.049Z,19.16
2022-08-23T21:35:18.085Z,19.15
2022-08-23T21:37:46.739Z,19.15
2022-08-23T21:40:15.225Z,19.15
2022-08-23T21:42:45.597Z,19.14
2022-08-23T21:45:14.489Z,19.14
2022-08-23T21:47:44.310Z,19.13
2022-08-23T21:50:13.483Z,19.13
2022-08-23T21:52:42.209Z,19.13
2022-08-23T21:55:11.370Z,19.13
2022-08-23T21:57:42.819Z,19.14
2022-08-23T22:00:15.113Z,19.16
2022-08-23T22:02:44.537Z,19.16
2022-08-23T22:05:13.665Z,19.17
2022-08-23T22:07:42.473Z,19.18
2022-08-23T22:10:11.992Z,19.19
2022-08-23T22:12:40.741Z,19.20
2022-08-23T22:15:10.889Z,19.19
2022-08-23T22:17:40.218Z,19.19
2022-08-23T22:20:12.886Z,19.17
2022-08-23T22:22:43.089Z,19.14
2022-08-23T22:25:13.283Z,19.13
2022-08-23T22:27:42.017Z,19.13
2022-08-23T22:30:12.709Z,19.13
2022-08-23T22:32:42.472Z,19.12
2022-08-23T22:35:13.405Z,19.11
2022-08-23T22:38:03.622Z,19.11
2022-08-23T22:40:32.755Z,19.08
2022-08-23T22:43:02.098Z,19.08
2022-08-23T22:45:30.996Z,19.09
2022-08-23T22:48:00.313Z,19.10
2022-08-23T22:50:28.968Z,19.11
2022-08-23T22:52:57.560Z,19.11
2022-08-23T22:55:26.342Z,19.11
2022-08-23T22:57:55.277Z,19.11
2022-08-23T23:00:24.284Z,19.12
2022-08-23T23:02:52.745Z,19.13
2022-08-23T23:05:21.876Z,19.14
2022-08-23T23:08:08.543Z,19.15
2022-08-23T23:10:37.321Z,19.15
2022-08-23T23:13:05.890Z,19.17
2022-08-23T23:15:34.357Z,19.15
2022-08-23T23:18:03.804Z,19.14
2022-08-23T23:20:40.206Z,19.13
2022-08-23T23:23:12.747Z,19.12
2022-08-23T23:25:42.814Z,19.10
2022-08-23T23:28:11.494Z,19.09
2022-08-23T23:30:41.467Z,19.07
2022-08-23T23:33:10.516Z,19.08
2022-08-23T23:35:39.716Z,19.06
2022-08-23T23:38:09.648Z,19.04
2022-08-23T23:40:39.254Z,19.04
2022-08-23T23:43:09.132Z,19.03
2022-08-23T23:45:42.347Z,19.03
2022-08-23T23:48:11.227Z,19.03
2022-08-23T23:50:45.470Z,19.03
2022-08-23T23:53:16.288Z,19.04
2022-08-23T23:55:44.843Z,19.05
2022-08-23T23:58:13.456Z,19.06
